sensor_id;sensor_type;location;lat;lon;timestamp;P1;durP1;ratioP1;P2;durP2;ratioP2
18302;SDS011;9277;37.980;23.748;2023-01-26T00:00:52;9.38;;;4.50;;
18302;SDS011;9277;37.980;23.748;2023-01-26T00:03:20;7.10;;;3.90;;
18302;SDS011;9277;37.980;23.748;2023-01-26T00:05:48;7.35;;;4.30;;
18302;SDS011;9277;37.980;23.748;2023-01-26T00:08:15;6.60;;;4.35;;
18302;SDS011;9277;37.980;23.748;2023-01-26T00:10:42;14.13;;;4.65;;
18302;SDS011;9277;37.980;23.748;2023-01-26T00:13:16;5.05;;;3.65;;
18302;SDS011;9277;37.980;23.748;2023-01-26T00:15:44;9.45;;;4.55;;
18302;SDS011;9277;37.980;23.748;2023-01-26T00:18:11;6.53;;;3.95;;
18302;SDS011;9277;37.980;23.748;2023-01-26T00:20:39;3.90;;;3.50;;
18302;SDS011;9277;37.980;23.748;2023-01-26T00:23:06;7.07;;;4.35;;
18302;SDS011;9277;37.980;23.748;2023-01-26T00:25:33;5.13;;;3.50;;
18302;SDS011;9277;37.980;23.748;2023-01-26T00:28:00;5.32;;;4.07;;
18302;SDS011;9277;37.980;23.748;2023-01-26T00:30:29;8.77;;;3.75;;
18302;SDS011;9277;37.980;23.748;2023-01-26T00:32:56;9.82;;;4.20;;
18302;SDS011;9277;37.980;23.748;2023-01-26T00:35:23;4.75;;;3.35;;
18302;SDS011;9277;37.980;23.748;2023-01-26T00:37:50;5.15;;;3.78;;
18302;SDS011;9277;37.980;23.748;2023-01-26T00:40:19;4.80;;;3.55;;
18302;SDS011;9277;37.980;23.748;2023-01-26T00:42:46;11.75;;;4.00;;
18302;SDS011;9277;37.980;23.748;2023-01-26T00:45:13;6.25;;;3.63;;
18302;SDS011;9277;37.980;23.748;2023-01-26T00:47:41;10.75;;;4.15;;
18302;SDS011;9277;37.980;23.748;2023-01-26T00:50:09;6.82;;;3.95;;
18302;SDS011;9277;37.980;23.748;2023-01-26T00:52:36;6.50;;;3.80;;
18302;SDS011;9277;37.980;23.748;2023-01-26T00:55:04;4.75;;;3.50;;
18302;SDS011;9277;37.980;23.748;2023-01-26T00:57:31;5.70;;;4.15;;
18302;SDS011;9277;37.980;23.748;2023-01-26T00:59:58;6.45;;;3.88;;
18302;SDS011;9277;37.980;23.748;2023-01-26T01:02:25;6.68;;;4.25;;
18302;SDS011;9277;37.980;23.748;2023-01-26T01:04:54;5.70;;;3.97;;
18302;SDS011;9277;37.980;23.748;2023-01-26T01:07:21;7.68;;;3.53;;
18302;SDS011;9277;37.980;23.748;2023-01-26T01:09:49;10.48;;;4.38;;
18302;SDS011;9277;37.980;23.748;2023-01-26T01:12:16;6.22;;;3.88;;
18302;SDS011;9277;37.980;23.748;2023-01-26T01:14:43;14.55;;;5.32;;
18302;SDS011;9277;37.980;23.748;2023-01-26T01:17:10;5.78;;;3.70;;
18302;SDS011;9277;37.980;23.748;2023-01-26T01:19:38;7.15;;;3.40;;
18302;SDS011;9277;37.980;23.748;2023-01-26T01:22:06;6.55;;;3.50;;
18302;SDS011;9277;37.980;23.748;2023-01-26T01:24:33;5.22;;;3.85;;
18302;SDS011;9277;37.980;23.748;2023-01-26T01:27:01;12.85;;;4.05;;
18302;SDS011;9277;37.980;23.748;2023-01-26T01:29:31;7.68;;;3.95;;
18302;SDS011;9277;37.980;23.748;2023-01-26T01:31:58;6.78;;;3.92;;
18302;SDS011;9277;37.980;23.748;2023-01-26T01:34:25;6.95;;;4.13;;
18302;SDS011;9277;37.980;23.748;2023-01-26T01:36:53;10.85;;;4.28;;
18302;SDS011;9277;37.980;23.748;2023-01-26T01:39:21;7.07;;;4.35;;
18302;SDS011;9277;37.980;23.748;2023-01-26T01:41:48;5.47;;;4.05;;
18302;SDS011;9277;37.980;23.748;2023-01-26T01:44:17;12.77;;;4.80;;
18302;SDS011;9277;37.980;23.748;2023-01-26T01:46:46;5.07;;;3.92;;
18302;SDS011;9277;37.980;23.748;2023-01-26T01:49:18;9.73;;;4.50;;
18302;SDS011;9277;37.980;23.748;2023-01-26T01:51:49;8.60;;;4.20;;
18302;SDS011;9277;37.980;23.748;2023-01-26T01:54:22;7.93;;;4.35;;
18302;SDS011;9277;37.980;23.748;2023-01-26T01:56:54;5.53;;;4.15;;
18302;SDS011;9277;37.980;23.748;2023-01-26T01:59:26;6.22;;;4.40;;
18302;SDS011;9277;37.980;23.748;2023-01-26T02:01:54;6.82;;;4.60;;
18302;SDS011;9277;37.980;23.748;2023-01-26T02:04:22;10.20;;;4.47;;
18302;SDS011;9277;37.980;23.748;2023-01-26T02:06:52;6.60;;;4.43;;
18302;SDS011;9277;37.980;23.748;2023-01-26T02:09:26;7.97;;;3.85;;
18302;SDS011;9277;37.980;23.748;2023-01-26T02:12:15;6.40;;;4.25;;
18302;SDS011;9277;37.980;23.748;2023-01-26T02:14:43;9.73;;;4.45;;
18302;SDS011;9277;37.980;23.748;2023-01-26T02:17:12;6.68;;;3.90;;
18302;SDS011;9277;37.980;23.748;2023-01-26T02:19:43;7.18;;;4.15;;
18302;SDS011;9277;37.980;23.748;2023-01-26T02:22:31;7.82;;;3.85;;
18302;SDS011;9277;37.980;23.748;2023-01-26T02:25:09;7.28;;;3.92;;
18302;SDS011;9277;37.980;23.748;2023-01-26T02:27:46;6.43;;;3.97;;
18302;SDS011;9277;37.980;23.748;2023-01-26T02:30:14;7.65;;;4.93;;
18302;SDS011;9277;37.980;23.748;2023-01-26T02:32:43;9.10;;;4.28;;
18302;SDS011;9277;37.980;23.748;2023-01-26T02:35:10;9.27;;;5.18;;
18302;SDS011;9277;37.980;23.748;2023-01-26T02:37:37;6.70;;;4.20;;
18302;SDS011;9277;37.980;23.748;2023-01-26T02:40:04;5.20;;;3.67;;
18302;SDS011;9277;37.980;23.748;2023-01-26T02:42:39;7.28;;;4.90;;
18302;SDS011;9277;37.980;23.748;2023-01-26T02:45:08;6.35;;;4.03;;
18302;SDS011;9277;37.980;23.748;2023-01-26T02:47:36;7.80;;;4.57;;
18302;SDS011;9277;37.980;23.748;2023-01-26T02:50:04;10.82;;;4.57;;
18302;SDS011;9277;37.980;23.748;2023-01-26T02:52:31;6.63;;;4.13;;
18302;SDS011;9277;37.980;23.748;2023-01-26T02:54:58;5.63;;;3.90;;
18302;SDS011;9277;37.980;23.748;2023-01-26T02:57:43;11.00;;;4.13;;
18302;SDS011;9277;37.980;23.748;2023-01-26T03:00:15;6.93;;;4.03;;
18302;SDS011;9277;37.980;23.748;2023-01-26T03:02:44;9.07;;;4.20;;
18302;SDS011;9277;37.980;23.748;2023-01-26T03:05:12;6.03;;;3.78;;
18302;SDS011;9277;37.980;23.748;2023-01-26T03:07:39;7.50;;;4.60;;
18302;SDS011;9277;37.980;23.748;2023-01-26T03:10:07;9.63;;;4.57;;
18302;SDS011;9277;37.980;23.748;2023-01-26T03:12:35;11.05;;;4.75;;
18302;SDS011;9277;37.980;23.748;2023-01-26T03:15:02;8.50;;;4.85;;
18302;SDS011;9277;37.980;23.748;2023-01-26T03:17:49;15.18;;;4.90;;
18302;SDS011;9277;37.980;23.748;2023-01-26T03:20:36;19.67;;;5.25;;
18302;SDS011;9277;37.980;23.748;2023-01-26T03:23:21;9.30;;;4.80;;
18302;SDS011;9277;37.980;23.748;2023-01-26T03:26:07;10.80;;;5.07;;
18302;SDS011;9277;37.980;23.748;2023-01-26T03:28:52;5.97;;;3.78;;
18302;SDS011;9277;37.980;23.748;2023-01-26T03:31:20;9.18;;;3.95;;
18302;SDS011;9277;37.980;23.748;2023-01-26T03:33:48;5.90;;;4.03;;
18302;SDS011;9277;37.980;23.748;2023-01-26T03:36:15;5.97;;;4.22;;
18302;SDS011;9277;37.980;23.748;2023-01-26T03:38:42;7.18;;;3.88;;
18302;SDS011;9277;37.980;23.748;2023-01-26T03:41:09;8.70;;;4.45;;
18302;SDS011;9277;37.980;23.748;2023-01-26T03:43:54;6.63;;;4.28;;
18302;SDS011;9277;37.980;23.748;2023-01-26T03:46:38;8.50;;;3.90;;
18302;SDS011;9277;37.980;23.748;2023-01-26T03:49:24;15.23;;;4.18;;
18302;SDS011;9277;37.980;23.748;2023-01-26T03:52:08;10.23;;;4.15;;
18302;SDS011;9277;37.980;23.748;2023-01-26T03:54:52;10.00;;;4.95;;
18302;SDS011;9277;37.980;23.748;2023-01-26T03:57:37;11.18;;;4.65;;
18302;SDS011;9277;37.980;23.748;2023-01-26T04:00:04;7.55;;;4.70;;
18302;SDS011;9277;37.980;23.748;2023-01-26T04:02:32;14.68;;;5.25;;
18302;SDS011;9277;37.980;23.748;2023-01-26T04:05:18;9.35;;;4.47;;
18302;SDS011;9277;37.980;23.748;2023-01-26T04:08:02;7.80;;;4.57;;
18302;SDS011;9277;37.980;23.748;2023-01-26T04:10:49;9.02;;;4.80;;
18302;SDS011;9277;37.980;23.748;2023-01-26T04:13:17;10.13;;;4.80;;
18302;SDS011;9277;37.980;23.748;2023-01-26T04:16:02;10.27;;;4.95;;
18302;SDS011;9277;37.980;23.748;2023-01-26T04:18:46;10.13;;;5.07;;
18302;SDS011;9277;37.980;23.748;2023-01-26T04:21:33;7.43;;;4.80;;
18302;SDS011;9277;37.980;23.748;2023-01-26T04:24:01;11.10;;;5.38;;
18302;SDS011;9277;37.980;23.748;2023-01-26T04:26:34;7.13;;;5.13;;
18302;SDS011;9277;37.980;23.748;2023-01-26T04:29:02;11.50;;;5.20;;
18302;SDS011;9277;37.980;23.748;2023-01-26T04:31:31;8.70;;;4.45;;
18302;SDS011;9277;37.980;23.748;2023-01-26T04:33:58;11.30;;;5.75;;
18302;SDS011;9277;37.980;23.748;2023-01-26T04:36:25;10.98;;;4.82;;
18302;SDS011;9277;37.980;23.748;2023-01-26T04:38:54;10.25;;;4.63;;
18302;SDS011;9277;37.980;23.748;2023-01-26T04:41:21;10.98;;;5.05;;
18302;SDS011;9277;37.980;23.748;2023-01-26T04:43:48;13.95;;;4.90;;
18302;SDS011;9277;37.980;23.748;2023-01-26T04:46:16;10.13;;;5.15;;
18302;SDS011;9277;37.980;23.748;2023-01-26T04:48:43;11.18;;;4.70;;
18302;SDS011;9277;37.980;23.748;2023-01-26T04:51:11;10.45;;;5.22;;
18302;SDS011;9277;37.980;23.748;2023-01-26T04:53:39;9.65;;;5.30;;
18302;SDS011;9277;37.980;23.748;2023-01-26T04:56:08;16.15;;;4.78;;
18302;SDS011;9277;37.980;23.748;2023-01-26T04:58:44;11.57;;;5.40;;
18302;SDS011;9277;37.980;23.748;2023-01-26T05:01:12;15.45;;;5.47;;
18302;SDS011;9277;37.980;23.748;2023-01-26T05:03:39;8.88;;;4.88;;
18302;SDS011;9277;37.980;23.748;2023-01-26T05:06:06;8.63;;;4.80;;
18302;SDS011;9277;37.980;23.748;2023-01-26T05:08:35;8.52;;;4.80;;
18302;SDS011;9277;37.980;23.748;2023-01-26T05:11:03;7.95;;;4.38;;
18302;SDS011;9277;37.980;23.748;2023-01-26T05:13:32;11.40;;;5.22;;
18302;SDS011;9277;37.980;23.748;2023-01-26T05:16:00;13.98;;;5.13;;
18302;SDS011;9277;37.980;23.748;2023-01-26T05:18:27;19.05;;;4.78;;
18302;SDS011;9277;37.980;23.748;2023-01-26T05:20:55;9.85;;;4.97;;
18302;SDS011;9277;37.980;23.748;2023-01-26T05:23:22;9.30;;;5.15;;
18302;SDS011;9277;37.980;23.748;2023-01-26T05:25:49;10.32;;;4.55;;
18302;SDS011;9277;37.980;23.748;2023-01-26T05:28:16;8.85;;;4.30;;
18302;SDS011;9277;37.980;23.748;2023-01-26T05:30:45;8.20;;;4.28;;
18302;SDS011;9277;37.980;23.748;2023-01-26T05:33:12;10.40;;;4.57;;
18302;SDS011;9277;37.980;23.748;2023-01-26T05:35:40;7.38;;;4.13;;
18302;SDS011;9277;37.980;23.748;2023-01-26T05:38:07;10.07;;;3.88;;
18302;SDS011;9277;37.980;23.748;2023-01-26T05:40:34;8.32;;;4.50;;
18302;SDS011;9277;37.980;23.748;2023-01-26T05:43:01;10.25;;;4.63;;
18302;SDS011;9277;37.980;23.748;2023-01-26T05:45:28;13.85;;;5.18;;
18302;SDS011;9277;37.980;23.748;2023-01-26T05:47:56;13.50;;;5.32;;
18302;SDS011;9277;37.980;23.748;2023-01-26T05:50:23;8.15;;;4.25;;
18302;SDS011;9277;37.980;23.748;2023-01-26T05:52:50;11.98;;;5.05;;
18302;SDS011;9277;37.980;23.748;2023-01-26T05:55:18;9.95;;;4.80;;
18302;SDS011;9277;37.980;23.748;2023-01-26T05:57:45;9.95;;;4.80;;
18302;SDS011;9277;37.980;23.748;2023-01-26T06:00:12;11.88;;;6.15;;
18302;SDS011;9277;37.980;23.748;2023-01-26T06:02:40;10.50;;;5.15;;
18302;SDS011;9277;37.980;23.748;2023-01-26T06:05:09;10.40;;;4.63;;
18302;SDS011;9277;37.980;23.748;2023-01-26T06:07:36;11.60;;;5.95;;
18302;SDS011;9277;37.980;23.748;2023-01-26T06:10:04;10.20;;;5.45;;
18302;SDS011;9277;37.980;23.748;2023-01-26T06:12:31;12.30;;;4.95;;
18302;SDS011;9277;37.980;23.748;2023-01-26T06:14:59;10.77;;;5.25;;
18302;SDS011;9277;37.980;23.748;2023-01-26T06:17:27;12.43;;;5.40;;
18302;SDS011;9277;37.980;23.748;2023-01-26T06:19:54;12.98;;;5.85;;
18302;SDS011;9277;37.980;23.748;2023-01-26T06:22:22;14.00;;;5.25;;
18302;SDS011;9277;37.980;23.748;2023-01-26T06:24:50;30.45;;;6.70;;
18302;SDS011;9277;37.980;23.748;2023-01-26T06:27:17;75.68;;;10.05;;
18302;SDS011;9277;37.980;23.748;2023-01-26T06:29:44;33.05;;;7.95;;
18302;SDS011;9277;37.980;23.748;2023-01-26T06:32:11;27.10;;;6.00;;
18302;SDS011;9277;37.980;23.748;2023-01-26T06:34:39;18.63;;;5.47;;
18302;SDS011;9277;37.980;23.748;2023-01-26T06:37:07;12.18;;;6.38;;
18302;SDS011;9277;37.980;23.748;2023-01-26T06:39:36;11.70;;;5.63;;
18302;SDS011;9277;37.980;23.748;2023-01-26T06:42:03;12.75;;;5.25;;
18302;SDS011;9277;37.980;23.748;2023-01-26T06:44:33;13.48;;;6.38;;
18302;SDS011;9277;37.980;23.748;2023-01-26T06:47:00;15.48;;;5.75;;
18302;SDS011;9277;37.980;23.748;2023-01-26T06:49:27;12.57;;;6.30;;
18302;SDS011;9277;37.980;23.748;2023-01-26T06:51:55;12.60;;;5.30;;
18302;SDS011;9277;37.980;23.748;2023-01-26T06:54:24;10.77;;;5.15;;
18302;SDS011;9277;37.980;23.748;2023-01-26T06:56:53;10.38;;;5.50;;
18302;SDS011;9277;37.980;23.748;2023-01-26T06:59:20;13.02;;;5.55;;
18302;SDS011;9277;37.980;23.748;2023-01-26T07:01:47;11.02;;;5.32;;
18302;SDS011;9277;37.980;23.748;2023-01-26T07:04:15;14.90;;;5.80;;
18302;SDS011;9277;37.980;23.748;2023-01-26T07:06:42;9.70;;;5.40;;
18302;SDS011;9277;37.980;23.748;2023-01-26T07:09:10;13.27;;;6.13;;
18302;SDS011;9277;37.980;23.748;2023-01-26T07:11:37;12.98;;;6.10;;
18302;SDS011;9277;37.980;23.748;2023-01-26T07:14:06;9.77;;;5.43;;
18302;SDS011;9277;37.980;23.748;2023-01-26T07:16:33;13.77;;;5.15;;
18302;SDS011;9277;37.980;23.748;2023-01-26T07:19:00;13.90;;;6.03;;
18302;SDS011;9277;37.980;23.748;2023-01-26T07:21:28;11.43;;;5.53;;
18302;SDS011;9277;37.980;23.748;2023-01-26T07:23:55;12.07;;;5.25;;
18302;SDS011;9277;37.980;23.748;2023-01-26T07:26:22;11.52;;;5.40;;
18302;SDS011;9277;37.980;23.748;2023-01-26T07:28:49;8.93;;;5.28;;
18302;SDS011;9277;37.980;23.748;2023-01-26T07:31:18;13.55;;;6.53;;
18302;SDS011;9277;37.980;23.748;2023-01-26T07:33:45;11.82;;;6.25;;
18302;SDS011;9277;37.980;23.748;2023-01-26T07:36:12;15.18;;;6.75;;
18302;SDS011;9277;37.980;23.748;2023-01-26T07:38:39;12.15;;;5.35;;
18302;SDS011;9277;37.980;23.748;2023-01-26T07:41:07;15.73;;;6.78;;
18302;SDS011;9277;37.980;23.748;2023-01-26T07:43:37;12.82;;;6.40;;
18302;SDS011;9277;37.980;23.748;2023-01-26T07:46:06;17.75;;;7.15;;
18302;SDS011;9277;37.980;23.748;2023-01-26T07:48:36;14.15;;;6.90;;
18302;SDS011;9277;37.980;23.748;2023-01-26T07:51:03;21.10;;;7.32;;
18302;SDS011;9277;37.980;23.748;2023-01-26T07:53:32;15.82;;;6.80;;
18302;SDS011;9277;37.980;23.748;2023-01-26T07:56:07;14.80;;;6.85;;
18302;SDS011;9277;37.980;23.748;2023-01-26T07:58:35;14.38;;;7.10;;
18302;SDS011;9277;37.980;23.748;2023-01-26T08:01:04;16.02;;;6.75;;
18302;SDS011;9277;37.980;23.748;2023-01-26T08:03:32;13.15;;;6.30;;
18302;SDS011;9277;37.980;23.748;2023-01-26T08:06:01;16.50;;;7.85;;
18302;SDS011;9277;37.980;23.748;2023-01-26T08:08:28;10.70;;;6.28;;
18302;SDS011;9277;37.980;23.748;2023-01-26T08:10:56;18.25;;;6.85;;
18302;SDS011;9277;37.980;23.748;2023-01-26T08:13:24;15.48;;;6.65;;
18302;SDS011;9277;37.980;23.748;2023-01-26T08:15:54;22.08;;;8.55;;
18302;SDS011;9277;37.980;23.748;2023-01-26T08:18:28;21.08;;;7.45;;
18302;SDS011;9277;37.980;23.748;2023-01-26T08:20:56;19.10;;;8.15;;
18302;SDS011;9277;37.980;23.748;2023-01-26T08:23:25;20.80;;;8.48;;
18302;SDS011;9277;37.980;23.748;2023-01-26T08:25:52;15.40;;;7.40;;
18302;SDS011;9277;37.980;23.748;2023-01-26T08:28:20;16.88;;;7.80;;
18302;SDS011;9277;37.980;23.748;2023-01-26T08:30:47;20.83;;;8.25;;
18302;SDS011;9277;37.980;23.748;2023-01-26T08:33:14;20.63;;;8.60;;
18302;SDS011;9277;37.980;23.748;2023-01-26T08:35:41;18.33;;;8.40;;
18302;SDS011;9277;37.980;23.748;2023-01-26T08:38:08;18.08;;;8.27;;
18302;SDS011;9277;37.980;23.748;2023-01-26T08:40:37;23.23;;;6.57;;
18302;SDS011;9277;37.980;23.748;2023-01-26T08:43:04;13.48;;;3.97;;
18302;SDS011;9277;37.980;23.748;2023-01-26T08:45:32;11.80;;;4.38;;
18302;SDS011;9277;37.980;23.748;2023-01-26T08:48:01;17.95;;;3.88;;
18302;SDS011;9277;37.980;23.748;2023-01-26T08:50:29;14.73;;;3.22;;
18302;SDS011;9277;37.980;23.748;2023-01-26T08:52:56;4.43;;;2.05;;
18302;SDS011;9277;37.980;23.748;2023-01-26T08:55:23;5.63;;;2.05;;
18302;SDS011;9277;37.980;23.748;2023-01-26T08:57:54;4.75;;;1.90;;
18302;SDS011;9277;37.980;23.748;2023-01-26T09:00:22;4.13;;;1.70;;
18302;SDS011;9277;37.980;23.748;2023-01-26T09:02:57;6.97;;;2.70;;
18302;SDS011;9277;37.980;23.748;2023-01-26T09:05:24;5.45;;;2.20;;
18302;SDS011;9277;37.980;23.748;2023-01-26T09:07:52;5.97;;;1.85;;
18302;SDS011;9277;37.980;23.748;2023-01-26T09:10:19;10.60;;;2.90;;
18302;SDS011;9277;37.980;23.748;2023-01-26T09:12:46;4.00;;;1.88;;
18302;SDS011;9277;37.980;23.748;2023-01-26T09:15:17;5.35;;;2.30;;
18302;SDS011;9277;37.980;23.748;2023-01-26T09:17:46;6.43;;;2.15;;
18302;SDS011;9277;37.980;23.748;2023-01-26T09:20:14;6.10;;;2.05;;
18302;SDS011;9277;37.980;23.748;2023-01-26T09:22:42;4.20;;;2.50;;
18302;SDS011;9277;37.980;23.748;2023-01-26T09:25:09;13.18;;;2.63;;
18302;SDS011;9277;37.980;23.748;2023-01-26T09:27:36;7.18;;;3.45;;
18302;SDS011;9277;37.980;23.748;2023-01-26T09:30:04;7.75;;;2.70;;
18302;SDS011;9277;37.980;23.748;2023-01-26T09:32:34;7.50;;;2.65;;
18302;SDS011;9277;37.980;23.748;2023-01-26T09:35:01;10.30;;;2.92;;
18302;SDS011;9277;37.980;23.748;2023-01-26T09:37:28;4.57;;;2.50;;
18302;SDS011;9277;37.980;23.748;2023-01-26T09:39:56;3.42;;;2.33;;
18302;SDS011;9277;37.980;23.748;2023-01-26T09:42:29;4.57;;;2.30;;
18302;SDS011;9277;37.980;23.748;2023-01-26T09:47:57;3.53;;;1.90;;
18302;SDS011;9277;37.980;23.748;2023-01-26T09:50:35;7.35;;;2.25;;
18302;SDS011;9277;37.980;23.748;2023-01-26T09:53:08;2.90;;;2.00;;
18302;SDS011;9277;37.980;23.748;2023-01-26T09:55:40;3.20;;;2.05;;
18302;SDS011;9277;37.980;23.748;2023-01-26T09:58:11;5.53;;;2.65;;
18302;SDS011;9277;37.980;23.748;2023-01-26T10:00:42;2.45;;;2.20;;
18302;SDS011;9277;37.980;23.748;2023-01-26T10:03:16;3.78;;;2.55;;
18302;SDS011;9277;37.980;23.748;2023-01-26T10:05:49;4.43;;;2.67;;
18302;SDS011;9277;37.980;23.748;2023-01-26T10:08:20;6.05;;;3.08;;
18302;SDS011;9277;37.980;23.748;2023-01-26T10:10:52;66.53;;;7.93;;
18302;SDS011;9277;37.980;23.748;2023-01-26T10:13:21;21.50;;;4.57;;
18302;SDS011;9277;37.980;23.748;2023-01-26T10:15:50;13.07;;;3.72;;
18302;SDS011;9277;37.980;23.748;2023-01-26T10:18:23;31.05;;;4.15;;
18302;SDS011;9277;37.980;23.748;2023-01-26T10:20:54;28.70;;;5.20;;
18302;SDS011;9277;37.980;23.748;2023-01-26T10:23:24;12.90;;;3.83;;
18302;SDS011;9277;37.980;23.748;2023-01-26T10:25:55;9.13;;;3.55;;
18302;SDS011;9277;37.980;23.748;2023-01-26T10:28:28;8.65;;;3.30;;
18302;SDS011;9277;37.980;23.748;2023-01-26T10:30:59;3.80;;;2.53;;
18302;SDS011;9277;37.980;23.748;2023-01-26T10:33:30;5.05;;;3.38;;
18302;SDS011;9277;37.980;23.748;2023-01-26T10:35:59;3.60;;;2.75;;
18302;SDS011;9277;37.980;23.748;2023-01-26T10:38:37;4.93;;;2.55;;
18302;SDS011;9277;37.980;23.748;2023-01-26T10:41:06;4.30;;;2.95;;
18302;SDS011;9277;37.980;23.748;2023-01-26T10:43:49;4.82;;;2.88;;
18302;SDS011;9277;37.980;23.748;2023-01-26T10:46:25;5.30;;;2.72;;
18302;SDS011;9277;37.980;23.748;2023-01-26T10:48:55;4.90;;;2.97;;
18302;SDS011;9277;37.980;23.748;2023-01-26T10:51:25;7.20;;;3.13;;
18302;SDS011;9277;37.980;23.748;2023-01-26T10:54:12;5.65;;;3.40;;
18302;SDS011;9277;37.980;23.748;2023-01-26T10:56:44;7.40;;;3.47;;
18302;SDS011;9277;37.980;23.748;2023-01-26T10:59:21;7.03;;;3.80;;
18302;SDS011;9277;37.980;23.748;2023-01-26T11:01:54;5.00;;;3.20;;
18302;SDS011;9277;37.980;23.748;2023-01-26T11:04:24;8.38;;;3.28;;
18302;SDS011;9277;37.980;23.748;2023-01-26T11:06:52;5.50;;;3.88;;
18302;SDS011;9277;37.980;23.748;2023-01-26T11:09:20;10.50;;;3.40;;
18302;SDS011;9277;37.980;23.748;2023-01-26T11:12:00;5.72;;;3.50;;
18302;SDS011;9277;37.980;23.748;2023-01-26T11:14:30;6.00;;;3.30;;
18302;SDS011;9277;37.980;23.748;2023-01-26T11:17:00;7.13;;;3.53;;
18302;SDS011;9277;37.980;23.748;2023-01-26T11:19:53;10.38;;;4.07;;
18302;SDS011;9277;37.980;23.748;2023-01-26T11:22:39;11.57;;;4.20;;
18302;SDS011;9277;37.980;23.748;2023-01-26T11:25:16;8.77;;;4.13;;
18302;SDS011;9277;37.980;23.748;2023-01-26T11:27:53;8.20;;;4.00;;
18302;SDS011;9277;37.980;23.748;2023-01-26T11:30:38;11.50;;;6.38;;
18302;SDS011;9277;37.980;23.748;2023-01-26T11:33:14;8.90;;;4.18;;
18302;SDS011;9277;37.980;23.748;2023-01-26T11:35:52;4.43;;;3.03;;
18302;SDS011;9277;37.980;23.748;2023-01-26T11:38:28;5.25;;;2.65;;
18302;SDS011;9277;37.980;23.748;2023-01-26T11:41:10;3.92;;;2.45;;
18302;SDS011;9277;37.980;23.748;2023-01-26T11:46:59;3.58;;;2.58;;
18302;SDS011;9277;37.980;23.748;2023-01-26T11:49:40;5.70;;;2.67;;
18302;SDS011;9277;37.980;23.748;2023-01-26T11:52:22;5.85;;;2.60;;
18302;SDS011;9277;37.980;23.748;2023-01-26T11:55:13;4.00;;;2.85;;
18302;SDS011;9277;37.980;23.748;2023-01-26T11:57:50;3.88;;;2.65;;
18302;SDS011;9277;37.980;23.748;2023-01-26T12:00:29;5.50;;;3.13;;
18302;SDS011;9277;37.980;23.748;2023-01-26T12:03:04;4.75;;;3.13;;
18302;SDS011;9277;37.980;23.748;2023-01-26T12:05:39;4.57;;;3.30;;
18302;SDS011;9277;37.980;23.748;2023-01-26T12:08:14;6.05;;;3.17;;
18302;SDS011;9277;37.980;23.748;2023-01-26T12:10:47;3.55;;;2.63;;
18302;SDS011;9277;37.980;23.748;2023-01-26T12:13:25;3.35;;;2.60;;
18302;SDS011;9277;37.980;23.748;2023-01-26T12:16:02;9.25;;;2.50;;
18302;SDS011;9277;37.980;23.748;2023-01-26T12:18:40;4.00;;;2.95;;
18302;SDS011;9277;37.980;23.748;2023-01-26T12:21:14;5.68;;;2.50;;
18302;SDS011;9277;37.980;23.748;2023-01-26T12:23:46;8.13;;;2.53;;
18302;SDS011;9277;37.980;23.748;2023-01-26T12:26:17;3.90;;;2.42;;
18302;SDS011;9277;37.980;23.748;2023-01-26T12:28:48;3.00;;;2.30;;
18302;SDS011;9277;37.980;23.748;2023-01-26T12:31:20;4.05;;;2.03;;
18302;SDS011;9277;37.980;23.748;2023-01-26T12:33:54;4.63;;;2.28;;
18302;SDS011;9277;37.980;23.748;2023-01-26T12:36:27;4.47;;;2.53;;
18302;SDS011;9277;37.980;23.748;2023-01-26T12:39:09;4.78;;;2.58;;
18302;SDS011;9277;37.980;23.748;2023-01-26T12:44:32;2.47;;;2.25;;
18302;SDS011;9277;37.980;23.748;2023-01-26T12:47:04;5.40;;;2.78;;
18302;SDS011;9277;37.980;23.748;2023-01-26T12:49:39;7.72;;;2.60;;
18302;SDS011;9277;37.980;23.748;2023-01-26T12:52:13;5.28;;;2.35;;
18302;SDS011;9277;37.980;23.748;2023-01-26T12:54:45;2.22;;;2.00;;
18302;SDS011;9277;37.980;23.748;2023-01-26T12:57:20;2.85;;;2.22;;
18302;SDS011;9277;37.980;23.748;2023-01-26T12:59:51;5.25;;;1.85;;
18302;SDS011;9277;37.980;23.748;2023-01-26T13:02:21;2.42;;;2.17;;
18302;SDS011;9277;37.980;23.748;2023-01-26T13:04:53;4.45;;;1.92;;
18302;SDS011;9277;37.980;23.748;2023-01-26T13:07:31;3.75;;;2.30;;
18302;SDS011;9277;37.980;23.748;2023-01-26T13:12:51;2.13;;;1.75;;
18302;SDS011;9277;37.980;23.748;2023-01-26T13:15:21;2.38;;;2.10;;
18302;SDS011;9277;37.980;23.748;2023-01-26T13:17:50;5.38;;;1.50;;
18302;SDS011;9277;37.980;23.748;2023-01-26T13:20:24;2.30;;;1.40;;
18302;SDS011;9277;37.980;23.748;2023-01-26T13:26:22;3.65;;;1.27;;
18302;SDS011;9277;37.980;23.748;2023-01-26T13:29:26;1.55;;;1.45;;
18302;SDS011;9277;37.980;23.748;2023-01-26T13:31:57;3.00;;;1.50;;
18302;SDS011;9277;37.980;23.748;2023-01-26T13:34:27;1.67;;;1.58;;
18302;SDS011;9277;37.980;23.748;2023-01-26T13:36:58;2.40;;;1.80;;
18302;SDS011;9277;37.980;23.748;2023-01-26T13:39:34;2.90;;;1.55;;
18302;SDS011;9277;37.980;23.748;2023-01-26T13:42:15;2.13;;;1.30;;
18302;SDS011;9277;37.980;23.748;2023-01-26T13:44:49;2.28;;;1.58;;
18302;SDS011;9277;37.980;23.748;2023-01-26T13:47:24;1.48;;;1.33;;
18302;SDS011;9277;37.980;23.748;2023-01-26T13:49:55;2.90;;;1.70;;
18302;SDS011;9277;37.980;23.748;2023-01-26T13:52:23;1.63;;;1.50;;
18302;SDS011;9277;37.980;23.748;2023-01-26T13:54:52;1.70;;;1.60;;
18302;SDS011;9277;37.980;23.748;2023-01-26T13:57:24;3.08;;;1.60;;
18302;SDS011;9277;37.980;23.748;2023-01-26T13:59:53;2.88;;;1.98;;
18302;SDS011;9277;37.980;23.748;2023-01-26T14:02:23;3.10;;;1.60;;
18302;SDS011;9277;37.980;23.748;2023-01-26T14:04:53;2.17;;;1.92;;
18302;SDS011;9277;37.980;23.748;2023-01-26T14:07:23;2.55;;;1.90;;
18302;SDS011;9277;37.980;23.748;2023-01-26T14:09:54;3.78;;;2.78;;
18302;SDS011;9277;37.980;23.748;2023-01-26T14:12:25;3.03;;;2.35;;
18302;SDS011;9277;37.980;23.748;2023-01-26T14:14:54;2.40;;;2.20;;
18302;SDS011;9277;37.980;23.748;2023-01-26T14:17:26;4.38;;;2.10;;
18302;SDS011;9277;37.980;23.748;2023-01-26T14:19:55;2.97;;;2.10;;
18302;SDS011;9277;37.980;23.748;2023-01-26T14:22:24;2.38;;;2.17;;
18302;SDS011;9277;37.980;23.748;2023-01-26T14:24:52;5.57;;;2.35;;
18302;SDS011;9277;37.980;23.748;2023-01-26T14:27:33;2.30;;;2.15;;
18302;SDS011;9277;37.980;23.748;2023-01-26T14:32:48;4.40;;;1.67;;
18302;SDS011;9277;37.980;23.748;2023-01-26T14:35:22;1.98;;;1.65;;
18302;SDS011;9277;37.980;23.748;2023-01-26T14:37:49;2.63;;;1.33;;
18302;SDS011;9277;37.980;23.748;2023-01-26T14:40:31;3.40;;;1.27;;
18302;SDS011;9277;37.980;23.748;2023-01-26T14:43:01;5.15;;;2.30;;
18302;SDS011;9277;37.980;23.748;2023-01-26T14:45:31;5.30;;;3.28;;
18302;SDS011;9277;37.980;23.748;2023-01-26T14:47:59;5.28;;;2.83;;
18302;SDS011;9277;37.980;23.748;2023-01-26T14:50:32;2.70;;;2.38;;
18302;SDS011;9277;37.980;23.748;2023-01-26T14:53:01;3.30;;;2.50;;
18302;SDS011;9277;37.980;23.748;2023-01-26T14:55:31;2.65;;;1.92;;
18302;SDS011;9277;37.980;23.748;2023-01-26T14:58:03;3.88;;;2.00;;
18302;SDS011;9277;37.980;23.748;2023-01-26T15:00:40;4.32;;;2.40;;
18302;SDS011;9277;37.980;23.748;2023-01-26T15:03:11;5.53;;;2.40;;
18302;SDS011;9277;37.980;23.748;2023-01-26T15:05:42;2.40;;;1.85;;
18302;SDS011;9277;37.980;23.748;2023-01-26T15:08:17;3.22;;;1.90;;
18302;SDS011;9277;37.980;23.748;2023-01-26T15:10:55;2.38;;;1.98;;
18302;SDS011;9277;37.980;23.748;2023-01-26T15:13:45;1.80;;;1.70;;
18302;SDS011;9277;37.980;23.748;2023-01-26T15:16:14;2.05;;;1.75;;
18302;SDS011;9277;37.980;23.748;2023-01-26T15:18:42;2.90;;;2.10;;
18302;SDS011;9277;37.980;23.748;2023-01-26T15:21:11;6.88;;;2.42;;
18302;SDS011;9277;37.980;23.748;2023-01-26T15:23:41;3.80;;;2.28;;